TAP1685 LPPT-LPMA
Flight info
| Callsign | TAP1685 |
|---|---|
| Flight time | N/A |
| Altitude | 37000 |
| Route | ULVOT DCT GALPA DCT RAKUN |
| Aircraft | A320/M-SDE3FGHIRWY/LB1 |
Departure
| Time | 2026-05-07 10:50 |
|---|---|
| Airport | Lisbon Humberto Delgado Airport (LPPT) |
Arrival
| Time | N/A |
|---|---|
| Airport | Cristiano Ronaldo International Airport (LPMA) |
| Time | Latitude | Longitude | Altitude | Speed | Heading |
|---|---|---|---|---|---|
| 2026-05-07 10:14 | 38.76742 | -9.13901 | 352 ft | 0 kts | 258° |
| 2026-05-07 10:41 | 38.76744 | -9.13884 | 360 ft | 3 kts | 258° |
| 2026-05-07 10:41 | 38.76750 | -9.13854 | 361 ft | 3 kts | 249° |
| 2026-05-07 10:41 | 38.76761 | -9.13828 | 359 ft | 3 kts | 223° |
| 2026-05-07 10:41 | 38.76779 | -9.13815 | 360 ft | 3 kts | 175° |
| 2026-05-07 10:42 | 38.76789 | -9.13817 | 360 ft | 0 kts | 169° |
| 2026-05-07 10:46 | 38.76756 | -9.13808 | 358 ft | 9 kts | 168° |
| 2026-05-07 10:46 | 38.76696 | -9.13792 | 352 ft | 9 kts | 167° |
| 2026-05-07 10:46 | 38.76677 | -9.13786 | 352 ft | 0 kts | 168° |
| 2026-05-07 10:47 | 38.76673 | -9.13785 | 352 ft | 1 kts | 168° |
| 2026-05-07 10:47 | 38.76662 | -9.13783 | 355 ft | 2 kts | 169° |
| 2026-05-07 10:47 | 38.76614 | -9.13792 | 354 ft | 10 kts | 212° |
| 2026-05-07 10:47 | 38.76591 | -9.13882 | 351 ft | 13 kts | 258° |
| 2026-05-07 10:48 | 38.76563 | -9.14010 | 355 ft | 17 kts | 243° |
| 2026-05-07 10:48 | 38.76496 | -9.14144 | 359 ft | 19 kts | 266° |
| 2026-05-07 10:48 | 38.76534 | -9.14287 | 357 ft | 12 kts | 294° |
| 2026-05-07 10:48 | 38.76567 | -9.14385 | 356 ft | 9 kts | 292° |
| 2026-05-07 10:49 | 38.76614 | -9.14406 | 353 ft | 9 kts | 22° |
| 2026-05-07 10:49 | 38.76626 | -9.14400 | 355 ft | 0 kts | 23° |
| 2026-05-07 10:49 | 38.76704 | -9.14358 | 358 ft | 52 kts | 22° |
| 2026-05-07 10:49 | 38.77346 | -9.14017 | 360 ft | 142 kts | 23° |
| 2026-05-07 10:50 | 38.78388 | -9.13463 | 823 ft | 171 kts | 21° |
| 2026-05-07 10:50 | 38.79489 | -9.12830 | 1826 ft | 177 kts | 19° |
| 2026-05-07 10:50 | 38.80693 | -9.12183 | 2598 ft | 200 kts | 20° |
| 2026-05-07 10:50 | 38.82028 | -9.11360 | 3416 ft | 227 kts | 29° |
| 2026-05-07 10:51 | 38.83461 | -9.10269 | 4323 ft | 250 kts | 30° |
| 2026-05-07 10:51 | 38.84987 | -9.09092 | 5544 ft | 260 kts | 30° |
| 2026-05-07 10:51 | 38.86538 | -9.07791 | 6696 ft | 274 kts | 42° |
| 2026-05-07 10:51 | 38.87681 | -9.05811 | 7784 ft | 282 kts | 69° |
| 2026-05-07 10:52 | 38.88048 | -9.03342 | 8956 ft | 286 kts | 94° |
| 2026-05-07 10:52 | 38.87532 | -9.00883 | 10120 ft | 290 kts | 119° |
| 2026-05-07 10:52 | 38.86305 | -8.98762 | 10794 ft | 313 kts | 139° |
| 2026-05-07 10:52 | 38.84407 | -8.97240 | 11362 ft | 335 kts | 161° |
| 2026-05-07 10:53 | 38.82068 | -8.96844 | 12154 ft | 346 kts | 186° |
| 2026-05-07 10:53 | 38.79768 | -8.97764 | 13119 ft | 352 kts | 211° |
| 2026-05-07 10:53 | 38.77924 | -8.99829 | 14096 ft | 355 kts | 229° |
| 2026-05-07 10:53 | 38.76265 | -9.02204 | 15022 ft | 361 kts | 230° |
| 2026-05-07 10:54 | 38.74596 | -9.04639 | 15951 ft | 366 kts | 231° |
| 2026-05-07 10:54 | 38.72930 | -9.07080 | 16873 ft | 371 kts | 231° |
| 2026-05-07 10:54 | 38.71194 | -9.09614 | 17800 ft | 376 kts | 231° |
| 2026-05-07 10:54 | 38.69447 | -9.12147 | 18633 ft | 382 kts | 231° |